ADDS METAR Data INFO
IDs: Format: Raw Decoded Include TAF

Data at: 0804 UTC 23 Jul 2018

K2I0 230755Z AUTO 36004KT 5SM BR OVC006 21/21 A2984 RMK AO2 T02100208
K2I0 230735Z AUTO 03004KT 5SM BR OVC006 21/21 A2983 RMK AO2 T02100208
K2I0 230715Z AUTO 01005KT 5SM BR OVC006 21/21 A2982 RMK AO2 T02110208
K2I0 230655Z AUTO 01004KT 5SM BR OVC006 21/21 A2983 RMK AO2 T02100207
K2I0 230635Z AUTO 36005KT 7SM OVC006 21/21 A2983 RMK AO2 T02130210
K2I0 230615Z AUTO 34006KT 7SM OVC006 21/21 A2983 RMK AO2 T02120211
K2I0 230555Z AUTO 36005KT 7SM BKN006 21/21 A2983 RMK AO2 T02100210 10221 20201 402600198
K2I0 230535Z AUTO 36004KT 7SM SCT006 21/21 A2984 RMK AO2 T02070207
K2I0 230515Z AUTO 36005KT 7SM SCT008 SCT024 21/21 A2984 RMK AO2 T02060206
K2I0 230455Z AUTO 36004KT 7SM BKN008 BKN024 21/21 A2984 RMK AO2 T02070207
K2I0 230435Z AUTO 33003KT 7SM BKN010 21/21 A2985 RMK AO2 T02050205
K2I0 230415Z AUTO 34003KT 10SM SCT010 20/20 A2985 RMK AO2 T02020199
K2I0 230355Z AUTO 00000KT 10SM CLR 21/20 A2985 RMK AO2 T02050200
K2I0 230335Z AUTO 00000KT 10SM CLR 21/20 A2985 RMK AO2 T02060200
K2I0 230315Z AUTO 35004KT 10SM SCT015 SCT022 21/20 A2985 RMK AO2 T02070200
K2I0 230255Z AUTO 34003KT 10SM SCT015 SCT022 21/20 A2985 RMK AO2 T02100201
K2I0 230235Z AUTO 35004KT 10SM CLR 21/21 A2985 RMK AO2 T02110205
K2I0 230215Z AUTO 34005KT 10SM CLR 21/21 A2985 RMK AO2 T02140207
K2I0 230155Z AUTO 34004KT 10SM SCT012 SCT024 SCT060 22/21 A2984 RMK AO2 T02150207
K2I0 230135Z AUTO 31004KT 10SM BKN014 BKN040 OVC075 22/21 A2983 RMK AO2 T02150207
K2I0 230115Z AUTO 32003KT 10SM BKN014 BKN040 22/21 A2983 RMK AO2 T02190208
K2I0 230055Z AUTO 34007KT 10SM SCT012 22/21 A2982 RMK AO2 T02180207
K2I0 230035Z AUTO 33006KT 10SM CLR 22/21 A2981 RMK AO2 T02200210
K2I0 230015Z AUTO 32006KT 10SM CLR 22/21 A2980 RMK AO2 T02200211
K2I0 222355Z AUTO 31008KT 10SM CLR 22/21 A2980 RMK AO2 60002 T02210211 10260 20217
K2I0 222335Z AUTO 32005KT 10SM SCT047 SCT050 SCT070 22/21 A2980 RMK AO2 T02220212
K2I0 222315Z AUTO 33005KT 10SM SCT027 SCT050 SCT070 22/21 A2980 RMK AO2 T02220212
K2I0 222255Z AUTO 32004KT 10SM SCT034 SCT048 BKN055 22/21 A2980 RMK AO2 P0002 T02210210
K2I0 222235Z AUTO 32006KT 7SM -RA SCT018 BKN032 OVC038 22/21 A2979 RMK AO2 P0002 T02180207
K2I0 222215Z AUTO 33006KT 10SM -RA SCT024 SCT031 BKN038 24/21 A2980 RMK AO2 T02410207
K2I0 222155Z AUTO 31009G14KT 10SM SCT023 BKN050 BKN075 25/21 A2979 RMK AO2 T02470206
K2I0 222135Z AUTO 32011G17KT 10SM SCT023 BKN047 OVC060 25/21 A2979 RMK AO2 T02540206
K2I0 222115Z AUTO 33009G17KT 10SM SCT024 BKN049 OVC085 25/20 A2978 RMK AO2 T02530204
K2I0 222055Z AUTO 31011G20KT 10SM BKN026 BKN034 OVC075 26/21 A2978 RMK AO2 T02590205
K2I0 222035Z AUTO 32007G17KT 10SM SCT026 BKN031 OVC075 25/20 A2978 RMK AO2 T02540203
K2I0 222015Z AUTO 33008KT 10SM BKN026 OVC060 26/20 A2978 RMK AO2 T02550203
K2I0 221955Z AUTO 32007G14KT 10SM BKN024 BKN037 OVC060 25/20 A2978 RMK AO2 T02500203
K2I0 221935Z AUTO 31011G17KT 10SM BKN022 BKN029 OVC060 26/21 A2979 RMK AO2 T02560206
K2I0 221915Z AUTO 32008KT 290V350 10SM OVC022 25/21 A2979 RMK AO2 T02500208
K2I0 221855Z AUTO 31010G18KT 10SM BKN020 OVC028 25/21 A2979 RMK AO2 T02480206
K2I0 221835Z AUTO 33009G15KT 10SM BKN020 OVC026 24/20 A2980 RMK AO2 T02360200
K2I0 221815Z AUTO 31009G14KT 280V340 10SM BKN020 OVC031 25/21 A2980 RMK AO2 T02480207
K2I0 221755Z AUTO 32010G16KT 10SM BKN017 OVC024 24/21 A2981 RMK AO2 T02400207 10240 20208
K2I0 221735Z AUTO 31011G15KT 10SM BKN015 BKN031 OVC060 24/21 A2981 RMK AO2 T02390208
K2I0 221715Z AUTO 31007G14KT 5SM -RA BKN017 BKN021 OVC032 22/20 A2982 RMK AO2 T02210204
K2I0 221655Z AUTO 30009G15KT 10SM BKN016 OVC020 23/20 A2982 RMK AO2 T02270201
K2I0 221635Z AUTO 31007KT 10SM OVC014 22/20 A2982 RMK AO2 T02230202
K2I0 221615Z AUTO 32007KT 7SM -RA OVC012 22/20 A2983 RMK AO2 T02160200
K2I0 221555Z AUTO 32006G14KT 10SM BKN014 OVC019 22/20 A2983 RMK AO2 T02220199
K2I0 221535Z AUTO 32008G16KT 10SM BKN016 BKN020 OVC028 22/20 A2983 RMK AO2 T02240202
K2I0 221515Z AUTO 31004G15KT 5SM BR BKN016 BKN028 OVC040 22/20 A2982 RMK AO2 T02210200
K2I0 221455Z AUTO 30007KT 10SM OVC018 23/20 A2982 RMK AO2 T02260200
K2I0 221435Z AUTO 31007KT 10SM BKN018 OVC026 23/20 A2981 RMK AO2 T02250199
K2I0 221415Z AUTO 31007KT 10SM BKN016 OVC023 22/20 A2981 RMK AO2 T02220198
K2I0 221355Z AUTO 30008G15KT 10SM BKN016 OVC023 22/20 A2981 RMK AO2 T02240198
K2I0 221335Z AUTO 32007KT 10SM BKN016 OVC025 22/20 A2981 RMK AO2 T02190195
K2I0 221315Z AUTO 31005KT 10SM SCT016 OVC025 22/20 A2981 RMK AO2 T02170196
K2I0 221255Z AUTO 30005KT 10SM OVC016 21/20 A2981 RMK AO2 T02130196
K2I0 221235Z AUTO 31004KT 10SM BKN014 OVC019 21/20 A2980 RMK AO2 T02110196
K2I0 221215Z AUTO 32004KT 10SM BKN012 OVC018 21/20 A2980 RMK AO2 T02100195
K2I0 221155Z AUTO 31006KT 10SM OVC012 21/20 A2980 RMK AO2 T02080196 10220 20198
K2I0 221135Z AUTO 28003KT 10SM OVC012 21/20 A2980 RMK AO2 T02050196
K2I0 221115Z AUTO 29004KT 10SM OVC014 20/20 A2979 RMK AO2 T02020195
K2I0 221055Z AUTO 28005KT 10SM BKN014 20/19 A2979 RMK AO2 T02000193
K2I0 221035Z AUTO 27005KT 10SM CLR 20/19 A2978 RMK AO2 T01990191
K2I0 221015Z AUTO 27004KT 10SM CLR 20/19 A2978 RMK AO2 T02000191
K2I0 220955Z AUTO 26004KT 10SM CLR 20/19 A2978 RMK AO2 T02000192
K2I0 220935Z AUTO 27005KT 10SM CLR 20/19 A2978 RMK AO2 T02010192
K2I0 220915Z AUTO 26004KT 10SM SCT100 21/20 A2978 RMK AO2 T02050195
K2I0 220855Z AUTO 26003KT 10SM SCT070 SCT080 BKN100 21/20 A2978 RMK AO2 T02100195
K2I0 220835Z AUTO 29004KT 10SM SCT070 BKN080 OVC100 22/20 A2978 RMK AO2 T02180195
K2I0 220815Z AUTO 30006KT 10SM SCT080 OVC100 22/20 A2979 RMK AO2 T02170195
K2I0 220755Z AUTO 31003KT 10SM BKN110 22/20 A2979 RMK AO2 T02180195
K2I0 220735Z AUTO 32005KT 10SM SCT100 OVC120 22/19 A2980 RMK AO2 T02200194
K2I0 220715Z AUTO 31006KT 10SM BKN047 OVC120 22/19 A2980 RMK AO2 T02190193
K2I0 220655Z AUTO 29006KT 10SM BKN045 BKN055 BKN075 22/19 A2981 RMK AO2 T02160193
K2I0 220635Z AUTO 30007KT 10SM BKN075 22/19 A2981 RMK AO2 T02150191
K2I0 220615Z AUTO 28006KT 10SM SCT085 21/19 A2982 RMK AO2 T02100190
K2I0 220555Z AUTO 28005KT 10SM CLR 21/19 A2982 RMK AO2 T02120190 10266 20211 402910205
K2I0 220535Z AUTO 28005KT 10SM CLR 21/19 A2982 RMK AO2 T02110190
K2I0 220515Z AUTO 28005KT 10SM CLR 21/19 A2983 RMK AO2 T02130190
K2I0 220455Z AUTO 28005KT 10SM CLR 22/19 A2983 RMK AO2 T02160189
K2I0 220435Z AUTO 30007KT 10SM CLR 22/19 A2983 RMK AO2 T02200188
K2I0 220415Z AUTO 28006KT 10SM CLR 22/19 A2983 RMK AO2 T02150188
K2I0 220355Z AUTO 28004KT 10SM CLR 21/19 A2983 RMK AO2 T02130188
K2I0 220335Z AUTO 27004KT 10SM CLR 22/19 A2984 RMK AO2 T02160186
K2I0 220315Z AUTO 27005KT 10SM CLR 22/19 A2984 RMK AO2 T02170186
K2I0 220255Z AUTO 27004KT 10SM CLR 22/19 A2984 RMK AO2 T02210186
K2I0 220235Z AUTO 30004KT 10SM CLR 23/19 A2985 RMK AO2 T02260185
K2I0 220215Z AUTO 30005KT 10SM CLR 23/19 A2984 RMK AO2 T02290186
K2I0 220155Z AUTO 31005KT 10SM CLR 23/19 A2983 RMK AO2 T02330187
K2I0 220135Z AUTO 31004KT 10SM CLR 24/19 A2983 RMK AO2 T02390186
K2I0 220115Z AUTO 30007KT 10SM CLR 24/19 A2983 RMK AO2 T02420189
K2I0 220055Z AUTO 31005KT 10SM CLR 25/19 A2983 RMK AO2 T02500191
K2I0 220035Z AUTO 31008KT 10SM CLR 26/19 A2982 RMK AO2 T02550192
K2I0 220015Z AUTO 32005KT 10SM CLR 26/19 A2982 RMK AO2 T02620191
K2I0 212355Z AUTO 30006KT 10SM CLR 27/19 A2981 RMK AO2 T02660192 10291 20266
K2I0 212335Z AUTO 31007KT 10SM SCT080 27/19 A2981 RMK AO2 T02700191
K2I0 212315Z AUTO 31010KT 10SM SCT044 SCT050 BKN070 27/19 A2981 RMK AO2 T02690191
K2I0 212255Z AUTO 32007KT 10SM BKN043 BKN050 OVC070 27/19 A2981 RMK AO2 T02730194
K2I0 212235Z AUTO 32009G19KT 10SM SCT046 SCT050 OVC070 27/19 A2981 RMK AO2 T02740190
K2I0 212215Z AUTO 32009G16KT 10SM SCT044 SCT055 BKN070 28/20 A2981 RMK AO2 T02790195
K2I0 212155Z AUTO 30008G16KT 10SM SCT044 SCT055 BKN070 28/20 A2981 RMK AO2 T02830196
K2I0 212135Z AUTO 32008G17KT 10SM SCT042 SCT048 SCT055 28/19 A2981 RMK AO2 T02750191
K2I0 212115Z AUTO 32010G16KT 10SM CLR 28/20 A2981 RMK AO2 T02820196
K2I0 212055Z AUTO 31009G16KT 10SM SCT041 SCT047 SCT055 27/20 A2980 RMK AO2 T02740200
K2I0 212035Z AUTO 32011G17KT 10SM SCT047 SCT070 28/20 A2980 RMK AO2 T02780197
K2I0 212015Z AUTO 32009G19KT 10SM SCT045 BKN070 28/20 A2980 RMK AO2 T02770197